Leesburg, FL

12:24 AM EDT on September 18, 2014 (GMT -0400)
Cypress Creek | Change Station
CLOSE
Current Station
Personal Weather Station
Location: Leesburg, FL
Elevation: 82 ft
Nearby Weather Stations

Elev 82 ft 28.77 °N, 81.88 °W | Updated 12 seconds ago

Clear
Clear
73.4 °F
Feels Like 73.4 °F
N
0.0
Wind Variable Wind from East
Gusts 0.0 mph

Today
High -- | Low -- °F
--% Chance of Precip.
Yesterday
High -- | Low -- °F
Precip. -- in
7:13 AM 7:28 PM
Waning Crescent, 30% visible
Pressure 29.94 in
Visibility 10.0 miles
Clouds Clear
Dew Point 73 °F
Humidity 99%
Rainfall 0.00 in
Snow Depth Not available.
UV 0 out of 12
Pollen 4.00 out of 12
Air Quality Not available.
Flu Activity Not available.
METAR KLEE 180353Z AUTO 28004KT 10SM CLR 25/23 A2994 RMK AO2 SLP136 T02500233

More Conditions Fewer Conditions

Pressure 29.94 in
Visibility 10.0 miles
Clouds Clear
Dew Point 73 °F
Humidity 99%
Rainfall 0.00 in
Snow Depth Not available.
UV 0 out of 12
Pollen 4.00 out of 12
Air Quality Not available.
Flu Activity Not available.
METAR KLEE 180353Z AUTO 28004KT 10SM CLR 25/23 A2994 RMK AO2 SLP136 T02500233

More Conditions Fewer Conditions

10-Day Weather Forecast

Almanac

Astronomy

Sep. 18, 2014 Rise Set
Actual Time 7:13 AM EDT 7:28 PM EDT
Civil Twilight 6:50 AM EDT 7:52 PM EDT
Nautical Twilight 6:22 AM EDT 8:20 PM EDT
Astronomical Twilight 5:54 AM EDT 8:47 PM EDT
Moon 2:23 AM EDT 4:02 PM EDT
Length of Visible Light 13h 02m
Length of Day
12h 14m
Tomorrow will be 1m 42s shorter.
Waning Crescent, 30% of the Moon is Illuminated
Today
Waning Crescent
Sep 24
New
Oct 1
First Quarter
Oct 8
Full
Oct 15
Last Quarter

Yesterday's Extremes

State Highs State Lows

Community

WunderPhotos

Upload Photos

1,754,292 photos uploaded!

Nearby

Snow Depth

Station Depth Elevation
No new snow has been reported.

Earthquake Activity

City Distance Mag. Time & Date
No recent earthquake activity has been reported nearby.
Minimum magnitude displayed is 2.5.

Coastal Water Temperatures

Place Temperature
No Stations Reporting

Nearby Weather Stations